sensor_id;sensor_type;location;lat;lon;timestamp;pressure;altitude;pressure_sealevel;temperature;humidity
49072;BME280;52656;52.610;10.236;2023-03-15T00:00:27;100367.00;;;-0.60;81.94
49072;BME280;52656;52.610;10.236;2023-03-15T00:02:53;100369.59;;;-0.56;82.44
49072;BME280;52656;52.610;10.236;2023-03-15T00:05:20;100371.31;;;-0.52;82.53
49072;BME280;52656;52.610;10.236;2023-03-15T00:07:45;100376.56;;;-0.50;82.44
49072;BME280;52656;52.610;10.236;2023-03-15T00:10:11;100374.81;;;-0.45;82.54
49072;BME280;52656;52.610;10.236;2023-03-15T00:12:36;100379.16;;;-0.41;82.04
49072;BME280;52656;52.610;10.236;2023-03-15T00:15:02;100380.88;;;-0.54;81.75
49072;BME280;52656;52.610;10.236;2023-03-15T00:17:27;100386.94;;;-0.53;81.56
49072;BME280;52656;52.610;10.236;2023-03-15T00:19:52;100379.13;;;-0.42;81.59
49072;BME280;52656;52.610;10.236;2023-03-15T00:22:17;100384.31;;;-0.33;80.83
49072;BME280;52656;52.610;10.236;2023-03-15T00:24:43;100384.31;;;-0.23;80.82
49072;BME280;52656;52.610;10.236;2023-03-15T00:27:09;100382.56;;;-0.19;80.59
49072;BME280;52656;52.610;10.236;2023-03-15T00:29:35;100378.22;;;-0.18;80.82
49072;BME280;52656;52.610;10.236;2023-03-15T00:32:00;100380.81;;;-0.18;80.67
49072;BME280;52656;52.610;10.236;2023-03-15T00:34:25;100383.44;;;-0.22;80.62
49072;BME280;52656;52.610;10.236;2023-03-15T00:36:51;100397.34;;;-0.27;80.26
49072;BME280;52656;52.610;10.236;2023-03-15T00:39:27;100405.13;;;-0.21;80.99
49072;BME280;52656;52.610;10.236;2023-03-15T00:41:52;100406.00;;;-0.24;80.70
49072;BME280;52656;52.610;10.236;2023-03-15T00:44:23;100415.56;;;-0.18;80.85
49072;BME280;52656;52.610;10.236;2023-03-15T00:46:49;100415.56;;;-0.32;81.30
49072;BME280;52656;52.610;10.236;2023-03-15T00:49:15;100412.97;;;-0.27;81.01
49072;BME280;52656;52.610;10.236;2023-03-15T00:51:40;100417.28;;;-0.26;80.77
49072;BME280;52656;52.610;10.236;2023-03-15T00:54:05;100426.84;;;-0.31;81.09
49072;BME280;52656;52.610;10.236;2023-03-15T00:56:31;100420.75;;;-0.29;81.08
49072;BME280;52656;52.610;10.236;2023-03-15T00:58:57;100427.69;;;-0.28;81.02
49072;BME280;52656;52.610;10.236;2023-03-15T01:01:28;100431.19;;;-0.32;80.76
49072;BME280;52656;52.610;10.236;2023-03-15T01:03:53;100433.78;;;-0.27;80.90
49072;BME280;52656;52.610;10.236;2023-03-15T01:06:21;100437.22;;;-0.11;80.69
49072;BME280;52656;52.610;10.236;2023-03-15T01:08:47;100438.97;;;-0.04;79.86
49072;BME280;52656;52.610;10.236;2023-03-15T01:11:18;100436.34;;;-0.07;79.48
49072;BME280;52656;52.610;10.236;2023-03-15T01:13:44;100432.00;;;-0.10;79.31
49072;BME280;52656;52.610;10.236;2023-03-15T01:16:12;100438.97;;;-0.12;80.22
49072;BME280;52656;52.610;10.236;2023-03-15T01:18:38;100444.19;;;-0.12;79.36
49072;BME280;52656;52.610;10.236;2023-03-15T01:21:07;100438.97;;;-0.07;80.13
49072;BME280;52656;52.610;10.236;2023-03-15T01:23:32;100442.44;;;-0.13;79.77
49072;BME280;52656;52.610;10.236;2023-03-15T01:26:02;100442.44;;;-0.20;80.25
49072;BME280;52656;52.610;10.236;2023-03-15T01:28:28;100442.47;;;-0.27;80.47
49072;BME280;52656;52.610;10.236;2023-03-15T01:30:53;100443.28;;;-0.23;80.25
49072;BME280;52656;52.610;10.236;2023-03-15T01:33:19;100453.72;;;-0.26;80.48
49072;BME280;52656;52.610;10.236;2023-03-15T01:35:45;100445.06;;;-0.31;80.53
49072;BME280;52656;52.610;10.236;2023-03-15T01:38:10;100453.72;;;-0.34;80.62
49072;BME280;52656;52.610;10.236;2023-03-15T01:40:54;100458.94;;;-0.38;80.80
49072;BME280;52656;52.610;10.236;2023-03-15T01:43:21;100453.72;;;-0.40;80.96
49072;BME280;52656;52.610;10.236;2023-03-15T01:45:56;100455.47;;;-0.40;81.15
49072;BME280;52656;52.610;10.236;2023-03-15T01:48:54;100451.09;;;-0.41;80.96
49072;BME280;52656;52.610;10.236;2023-03-15T01:54:19;100457.19;;;-0.15;79.81
49072;BME280;52656;52.610;10.236;2023-03-15T01:59:31;100455.41;;;0.15;78.60
49072;BME280;52656;52.610;10.236;2023-03-15T02:01:58;100450.16;;;0.30;78.54
49072;BME280;52656;52.610;10.236;2023-03-15T02:04:30;100451.88;;;0.36;78.02
49072;BME280;52656;52.610;10.236;2023-03-15T02:06:59;100452.72;;;0.48;77.41
49072;BME280;52656;52.610;10.236;2023-03-15T02:09:31;100450.09;;;0.59;77.66
49072;BME280;52656;52.610;10.236;2023-03-15T02:12:00;100456.13;;;0.69;77.51
49072;BME280;52656;52.610;10.236;2023-03-15T02:14:26;100455.25;;;0.74;77.81
49072;BME280;52656;52.610;10.236;2023-03-15T02:16:52;100463.06;;;0.73;77.53
49072;BME280;52656;52.610;10.236;2023-03-15T02:22:46;100468.28;;;0.73;78.15
49072;BME280;52656;52.610;10.236;2023-03-15T02:25:42;100460.50;;;0.58;77.46
49072;BME280;52656;52.610;10.236;2023-03-15T02:28:07;100464.00;;;0.55;77.95
49072;BME280;52656;52.610;10.236;2023-03-15T02:30:34;100475.28;;;0.52;76.83
49072;BME280;52656;52.610;10.236;2023-03-15T02:33:00;100474.44;;;0.50;77.31
49072;BME280;52656;52.610;10.236;2023-03-15T02:35:30;100463.16;;;0.51;77.33
49072;BME280;52656;52.610;10.236;2023-03-15T02:37:57;100468.34;;;0.51;75.44
49072;BME280;52656;52.610;10.236;2023-03-15T02:40:24;100464.88;;;0.49;76.47
49072;BME280;52656;52.610;10.236;2023-03-15T02:42:55;100468.38;;;0.47;77.02
49072;BME280;52656;52.610;10.236;2023-03-15T02:45:22;100472.69;;;0.45;76.93
49072;BME280;52656;52.610;10.236;2023-03-15T02:47:49;100478.81;;;0.35;76.47
49072;BME280;52656;52.610;10.236;2023-03-15T02:50:15;100481.41;;;0.36;76.75
49072;BME280;52656;52.610;10.236;2023-03-15T02:52:40;100474.47;;;0.31;76.90
49072;BME280;52656;52.610;10.236;2023-03-15T02:55:06;100482.31;;;0.29;77.12
49072;BME280;52656;52.610;10.236;2023-03-15T02:57:32;100487.50;;;0.26;77.45
49072;BME280;52656;52.610;10.236;2023-03-15T02:59:57;100488.41;;;0.23;77.55
49072;BME280;52656;52.610;10.236;2023-03-15T03:02:24;100493.63;;;0.16;77.56
49072;BME280;52656;52.610;10.236;2023-03-15T03:04:50;100497.09;;;0.10;77.55
49072;BME280;52656;52.610;10.236;2023-03-15T03:07:16;100501.44;;;0.02;77.94
49072;BME280;52656;52.610;10.236;2023-03-15T03:09:42;100503.19;;;-0.05;78.63
49072;BME280;52656;52.610;10.236;2023-03-15T03:12:08;100504.91;;;-0.05;78.25
49072;BME280;52656;52.610;10.236;2023-03-15T03:14:33;100507.53;;;-0.07;78.46
49072;BME280;52656;52.610;10.236;2023-03-15T03:16:58;100507.53;;;-0.11;78.93
49072;BME280;52656;52.610;10.236;2023-03-15T03:19:24;100512.72;;;-0.08;79.27
49072;BME280;52656;52.610;10.236;2023-03-15T03:21:50;100511.88;;;-0.13;78.53
49072;BME280;52656;52.610;10.236;2023-03-15T03:24:18;100517.06;;;-0.12;78.88
49072;BME280;52656;52.610;10.236;2023-03-15T03:26:44;100516.19;;;-0.14;79.21
49072;BME280;52656;52.610;10.236;2023-03-15T03:29:13;100526.63;;;-0.12;79.25
49072;BME280;52656;52.610;10.236;2023-03-15T03:31:42;100521.41;;;-0.08;79.07
49072;BME280;52656;52.610;10.236;2023-03-15T03:34:08;100524.00;;;-0.06;79.57
49072;BME280;52656;52.610;10.236;2023-03-15T03:36:35;100524.88;;;-0.15;79.83
49072;BME280;52656;52.610;10.236;2023-03-15T03:39:00;100537.91;;;-0.09;79.82
49072;BME280;52656;52.610;10.236;2023-03-15T03:41:26;100544.84;;;-0.17;79.70
49072;BME280;52656;52.610;10.236;2023-03-15T03:43:51;100542.25;;;-0.12;79.72
49072;BME280;52656;52.610;10.236;2023-03-15T03:46:17;100549.16;;;-0.19;79.35
49072;BME280;52656;52.610;10.236;2023-03-15T03:48:42;100552.66;;;-0.08;79.54
49072;BME280;52656;52.610;10.236;2023-03-15T03:51:08;100555.25;;;-0.06;80.27
49072;BME280;52656;52.610;10.236;2023-03-15T03:53:33;100555.28;;;-0.05;80.06
49072;BME280;52656;52.610;10.236;2023-03-15T03:55:58;100558.72;;;-0.12;79.90
49072;BME280;52656;52.610;10.236;2023-03-15T03:58:24;100567.38;;;-0.05;80.04
49072;BME280;52656;52.610;10.236;2023-03-15T04:00:51;100563.06;;;0.01;79.84
49072;BME280;52656;52.610;10.236;2023-03-15T04:03:20;100571.75;;;0.11;79.53
49072;BME280;52656;52.610;10.236;2023-03-15T04:05:51;100584.75;;;0.22;79.85
49072;BME280;52656;52.610;10.236;2023-03-15T04:08:17;100586.50;;;0.38;78.95
49072;BME280;52656;52.610;10.236;2023-03-15T04:10:43;100592.56;;;0.54;78.64
49072;BME280;52656;52.610;10.236;2023-03-15T04:13:08;100598.63;;;0.71;78.90
49072;BME280;52656;52.610;10.236;2023-03-15T04:15:34;100603.84;;;0.82;77.82
49072;BME280;52656;52.610;10.236;2023-03-15T04:17:59;100610.72;;;0.98;78.02
49072;BME280;52656;52.610;10.236;2023-03-15T04:20:30;100620.28;;;1.05;77.18
49072;BME280;52656;52.610;10.236;2023-03-15T04:22:59;100620.25;;;1.16;77.59
49072;BME280;52656;52.610;10.236;2023-03-15T04:25:24;100633.31;;;1.15;77.43
49072;BME280;52656;52.610;10.236;2023-03-15T04:27:52;100625.47;;;1.19;78.17
49072;BME280;52656;52.610;10.236;2023-03-15T04:30:25;100636.72;;;1.29;78.23
49072;BME280;52656;52.610;10.236;2023-03-15T04:32:51;100640.22;;;1.25;78.40
49072;BME280;52656;52.610;10.236;2023-03-15T04:35:24;100634.94;;;1.36;78.27
49072;BME280;52656;52.610;10.236;2023-03-15T04:37:50;100637.53;;;1.43;78.66
49072;BME280;52656;52.610;10.236;2023-03-15T04:40:16;100642.75;;;1.46;78.64
49072;BME280;52656;52.610;10.236;2023-03-15T04:42:41;100644.47;;;1.44;78.97
49072;BME280;52656;52.610;10.236;2023-03-15T04:45:07;100649.69;;;1.52;78.74
49072;BME280;52656;52.610;10.236;2023-03-15T04:47:33;100650.63;;;1.37;78.67
49072;BME280;52656;52.610;10.236;2023-03-15T04:49:58;100651.41;;;1.56;79.05
49072;BME280;52656;52.610;10.236;2023-03-15T04:52:23;100644.44;;;1.58;79.21
49072;BME280;52656;52.610;10.236;2023-03-15T04:54:48;100655.72;;;1.62;79.09
49072;BME280;52656;52.610;10.236;2023-03-15T04:57:14;100661.84;;;1.59;79.68
49072;BME280;52656;52.610;10.236;2023-03-15T04:59:39;100667.06;;;1.64;79.61
49072;BME280;52656;52.610;10.236;2023-03-15T05:02:06;100663.56;;;1.60;78.93
49072;BME280;52656;52.610;10.236;2023-03-15T05:04:31;100667.03;;;1.67;79.20
49072;BME280;52656;52.610;10.236;2023-03-15T05:06:56;100669.63;;;1.70;79.59
49072;BME280;52656;52.610;10.236;2023-03-15T05:09:22;100677.44;;;1.71;79.88
49072;BME280;52656;52.610;10.236;2023-03-15T05:11:47;100685.28;;;1.70;80.03
49072;BME280;52656;52.610;10.236;2023-03-15T05:14:13;100696.59;;;1.67;80.17
49072;BME280;52656;52.610;10.236;2023-03-15T05:16:38;100687.91;;;1.68;79.96
49072;BME280;52656;52.610;10.236;2023-03-15T05:19:04;100698.34;;;1.70;79.67
49072;BME280;52656;52.610;10.236;2023-03-15T05:21:29;100705.31;;;1.68;79.90
49072;BME280;52656;52.610;10.236;2023-03-15T05:23:54;100708.81;;;1.62;80.07
49072;BME280;52656;52.610;10.236;2023-03-15T05:26:20;100707.16;;;1.43;80.32
49072;BME280;52656;52.610;10.236;2023-03-15T05:28:45;100708.88;;;1.44;81.13
49072;BME280;52656;52.610;10.236;2023-03-15T05:31:10;100712.38;;;1.35;81.07
49072;BME280;52656;52.610;10.236;2023-03-15T05:33:36;100724.56;;;1.30;81.76
49072;BME280;52656;52.610;10.236;2023-03-15T05:36:01;100726.31;;;1.26;81.77
49072;BME280;52656;52.610;10.236;2023-03-15T05:38:27;100728.06;;;1.27;82.12
49072;BME280;52656;52.610;10.236;2023-03-15T05:40:53;100733.28;;;1.37;81.90
49072;BME280;52656;52.610;10.236;2023-03-15T05:43:19;100740.22;;;1.45;81.68
49072;BME280;52656;52.610;10.236;2023-03-15T05:45:44;100742.78;;;1.53;82.28
49072;BME280;52656;52.610;10.236;2023-03-15T05:48:11;100746.25;;;1.61;81.53
49072;BME280;52656;52.610;10.236;2023-03-15T05:50:36;100758.44;;;1.61;81.18
49072;BME280;52656;52.610;10.236;2023-03-15T05:53:02;100759.28;;;1.73;81.31
49072;BME280;52656;52.610;10.236;2023-03-15T05:55:27;100764.47;;;1.75;80.47
49072;BME280;52656;52.610;10.236;2023-03-15T05:57:52;100781.00;;;1.80;81.11
49072;BME280;52656;52.610;10.236;2023-03-15T06:00:18;100779.22;;;1.85;80.80
49072;BME280;52656;52.610;10.236;2023-03-15T06:02:44;100779.22;;;1.90;80.99
49072;BME280;52656;52.610;10.236;2023-03-15T06:05:10;100784.44;;;1.94;81.15
49072;BME280;52656;52.610;10.236;2023-03-15T06:07:36;100788.78;;;1.97;80.75
49072;BME280;52656;52.610;10.236;2023-03-15T06:10:02;100799.25;;;1.92;81.06
49072;BME280;52656;52.610;10.236;2023-03-15T06:12:28;100797.53;;;1.87;81.10
49072;BME280;52656;52.610;10.236;2023-03-15T06:14:54;100801.00;;;1.81;81.05
49072;BME280;52656;52.610;10.236;2023-03-15T06:17:19;100802.78;;;1.76;80.78
49072;BME280;52656;52.610;10.236;2023-03-15T06:19:44;100806.28;;;1.70;80.50
49072;BME280;52656;52.610;10.236;2023-03-15T06:22:10;100798.44;;;1.67;81.11
49072;BME280;52656;52.610;10.236;2023-03-15T06:24:35;100801.91;;;1.74;81.05
49072;BME280;52656;52.610;10.236;2023-03-15T06:27:00;100812.34;;;1.80;81.08
49072;BME280;52656;52.610;10.236;2023-03-15T06:29:26;100812.31;;;1.88;81.02
49072;BME280;52656;52.610;10.236;2023-03-15T06:31:51;100825.38;;;1.95;80.28
49072;BME280;52656;52.610;10.236;2023-03-15T06:34:18;100827.94;;;2.09;80.01
49072;BME280;52656;52.610;10.236;2023-03-15T06:36:43;100833.09;;;2.24;79.42
49072;BME280;52656;52.610;10.236;2023-03-15T06:39:10;100837.91;;;2.98;77.54
49072;BME280;52656;52.610;10.236;2023-03-15T06:41:37;100841.19;;;3.24;76.23
49072;BME280;52656;52.610;10.236;2023-03-15T06:44:02;100841.00;;;3.47;75.63
49072;BME280;52656;52.610;10.236;2023-03-15T06:46:28;100837.94;;;3.93;74.95
49072;BME280;52656;52.610;10.236;2023-03-15T06:48:53;100841.69;;;4.45;72.63
49072;BME280;52656;52.610;10.236;2023-03-15T06:51:18;100839.03;;;5.08;71.45
49072;BME280;52656;52.610;10.236;2023-03-15T06:53:44;100841.94;;;5.44;66.40
49072;BME280;52656;52.610;10.236;2023-03-15T06:56:10;100839.06;;;5.59;68.72
49072;BME280;52656;52.610;10.236;2023-03-15T06:58:35;100840.47;;;6.23;66.23
49072;BME280;52656;52.610;10.236;2023-03-15T07:01:01;100857.44;;;6.07;67.01
49072;BME280;52656;52.610;10.236;2023-03-15T07:03:26;100855.25;;;5.84;68.14
49072;BME280;52656;52.610;10.236;2023-03-15T07:05:51;100857.28;;;5.70;68.62
49072;BME280;52656;52.610;10.236;2023-03-15T07:08:19;100861.81;;;5.60;66.47
49072;BME280;52656;52.610;10.236;2023-03-15T07:10:45;100869.50;;;5.71;67.16
49072;BME280;52656;52.610;10.236;2023-03-15T07:13:11;100865.47;;;5.99;66.28
49072;BME280;52656;52.610;10.236;2023-03-15T07:15:37;100869.94;;;5.96;67.83
49072;BME280;52656;52.610;10.236;2023-03-15T07:18:03;100871.97;;;5.80;66.36
49072;BME280;52656;52.610;10.236;2023-03-15T07:20:28;100883.03;;;5.48;67.15
49072;BME280;52656;52.610;10.236;2023-03-15T07:22:53;100884.34;;;5.22;68.10
49072;BME280;52656;52.610;10.236;2023-03-15T07:25:19;100885.66;;;6.85;63.01
49072;BME280;52656;52.610;10.236;2023-03-15T07:27:49;100873.09;;;9.50;55.24
49072;BME280;52656;52.610;10.236;2023-03-15T07:30:15;100873.63;;;11.29;51.51
49072;BME280;52656;52.610;10.236;2023-03-15T07:32:41;100876.53;;;12.26;49.33
49072;BME280;52656;52.610;10.236;2023-03-15T07:35:06;100879.50;;;13.33;47.53
49072;BME280;52656;52.610;10.236;2023-03-15T07:37:32;100874.75;;;13.57;45.61
49072;BME280;52656;52.610;10.236;2023-03-15T07:39:57;100878.00;;;14.16;45.69
49072;BME280;52656;52.610;10.236;2023-03-15T07:42:24;100879.75;;;14.99;45.02
49072;BME280;52656;52.610;10.236;2023-03-15T07:44:50;100886.66;;;13.86;46.83
49072;BME280;52656;52.610;10.236;2023-03-15T07:47:15;100884.94;;;13.85;45.75
49072;BME280;52656;52.610;10.236;2023-03-15T07:49:40;100892.69;;;14.40;45.23
49072;BME280;52656;52.610;10.236;2023-03-15T07:52:06;100911.16;;;12.43;48.47
49072;BME280;52656;52.610;10.236;2023-03-15T07:54:31;100911.00;;;10.52;46.49
49072;BME280;52656;52.610;10.236;2023-03-15T07:56:58;100913.31;;;13.12;45.55
49072;BME280;52656;52.610;10.236;2023-03-15T07:59:23;100914.47;;;12.09;48.58
49072;BME280;52656;52.610;10.236;2023-03-15T08:01:49;100917.16;;;11.87;48.96
49072;BME280;52656;52.610;10.236;2023-03-15T08:04:14;100933.69;;;10.83;51.42
49072;BME280;52656;52.610;10.236;2023-03-15T08:06:39;100942.91;;;9.99;52.62
49072;BME280;52656;52.610;10.236;2023-03-15T08:09:05;100947.19;;;9.75;52.30
49072;BME280;52656;52.610;10.236;2023-03-15T08:11:31;100951.75;;;9.43;53.42
49072;BME280;52656;52.610;10.236;2023-03-15T08:13:57;100951.16;;;9.34;52.45
49072;BME280;52656;52.610;10.236;2023-03-15T08:16:22;100962.53;;;9.08;52.27
49072;BME280;52656;52.610;10.236;2023-03-15T08:18:47;100979.56;;;8.99;53.55
49072;BME280;52656;52.610;10.236;2023-03-15T08:21:13;100963.81;;;10.57;48.82
49072;BME280;52656;52.610;10.236;2023-03-15T08:23:38;100971.44;;;11.13;48.70
49072;BME280;52656;52.610;10.236;2023-03-15T08:26:03;100966.50;;;12.13;47.01
49072;BME280;52656;52.610;10.236;2023-03-15T08:28:29;100974.63;;;12.31;47.53
49072;BME280;52656;52.610;10.236;2023-03-15T08:30:55;100965.66;;;14.20;44.89
49072;BME280;52656;52.610;10.236;2023-03-15T08:33:20;100966.59;;;14.02;42.77
49072;BME280;52656;52.610;10.236;2023-03-15T08:35:51;100967.72;;;14.15;38.91
49072;BME280;52656;52.610;10.236;2023-03-15T08:38:16;100972.53;;;14.77;42.56
49072;BME280;52656;52.610;10.236;2023-03-15T08:40:41;100976.09;;;14.93;42.70
49072;BME280;52656;52.610;10.236;2023-03-15T08:43:07;100985.03;;;13.52;44.78
49072;BME280;52656;52.610;10.236;2023-03-15T08:45:32;100988.81;;;12.70;42.80
49072;BME280;52656;52.610;10.236;2023-03-15T08:47:58;100988.50;;;12.58;47.46
49072;BME280;52656;52.610;10.236;2023-03-15T08:50:25;100987.16;;;12.27;44.63
49072;BME280;52656;52.610;10.236;2023-03-15T08:52:51;100993.19;;;11.88;45.96
49072;BME280;52656;52.610;10.236;2023-03-15T08:55:17;100990.63;;;11.87;43.45
49072;BME280;52656;52.610;10.236;2023-03-15T08:57:42;101000.41;;;12.49;46.29
49072;BME280;52656;52.610;10.236;2023-03-15T09:00:08;101005.56;;;11.67;45.11
49072;BME280;52656;52.610;10.236;2023-03-15T09:02:35;101005.34;;;11.28;45.93
49072;BME280;52656;52.610;10.236;2023-03-15T09:05:01;101007.31;;;10.75;48.60
49072;BME280;52656;52.610;10.236;2023-03-15T09:07:26;101015.19;;;10.26;46.90
49072;BME280;52656;52.610;10.236;2023-03-15T09:09:52;101018.53;;;10.06;49.93
49072;BME280;52656;52.610;10.236;2023-03-15T09:12:19;101020.81;;;9.90;49.44
49072;BME280;52656;52.610;10.236;2023-03-15T09:14:45;101016.06;;;10.52;48.39
49072;BME280;52656;52.610;10.236;2023-03-15T09:17:11;101023.44;;;11.40;46.60
49072;BME280;52656;52.610;10.236;2023-03-15T09:19:36;101025.38;;;12.65;45.55
49072;BME280;52656;52.610;10.236;2023-03-15T09:22:01;101019.09;;;11.38;44.65
49072;BME280;52656;52.610;10.236;2023-03-15T09:24:27;101026.53;;;11.52;48.22
49072;BME280;52656;52.610;10.236;2023-03-15T09:26:52;101019.44;;;11.52;47.25
49072;BME280;52656;52.610;10.236;2023-03-15T09:29:17;101024.84;;;12.15;44.50
49072;BME280;52656;52.610;10.236;2023-03-15T09:31:43;101022.38;;;12.53;45.01
49072;BME280;52656;52.610;10.236;2023-03-15T09:34:08;101019.13;;;13.06;43.52
49072;BME280;52656;52.610;10.236;2023-03-15T09:36:34;101012.34;;;11.53;45.21
49072;BME280;52656;52.610;10.236;2023-03-15T09:38:59;101017.88;;;12.55;42.54
49072;BME280;52656;52.610;10.236;2023-03-15T09:44:49;101023.91;;;14.28;40.04
49072;BME280;52656;52.610;10.236;2023-03-15T09:47:21;101036.56;;;13.69;41.42
49072;BME280;52656;52.610;10.236;2023-03-15T09:50:25;101044.38;;;13.16;42.33
49072;BME280;52656;52.610;10.236;2023-03-15T09:52:50;101037.03;;;12.41;41.28
49072;BME280;52656;52.610;10.236;2023-03-15T09:55:21;101053.22;;;11.92;43.82
49072;BME280;52656;52.610;10.236;2023-03-15T09:58:03;101059.34;;;11.26;43.42
49072;BME280;52656;52.610;10.236;2023-03-15T10:03:02;101072.00;;;10.42;44.93
49072;BME280;52656;52.610;10.236;2023-03-15T10:05:42;101075.53;;;9.90;46.32
49072;BME280;52656;52.610;10.236;2023-03-15T10:08:13;101078.34;;;9.54;47.62
49072;BME280;52656;52.610;10.236;2023-03-15T10:10:48;101068.00;;;10.04;46.91
49072;BME280;52656;52.610;10.236;2023-03-15T10:13:50;101071.09;;;9.90;46.22
49072;BME280;52656;52.610;10.236;2023-03-15T10:16:31;101067.22;;;10.54;44.38
49072;BME280;52656;52.610;10.236;2023-03-15T10:19:05;101057.13;;;10.90;44.39
49072;BME280;52656;52.610;10.236;2023-03-15T10:24:19;101063.91;;;10.47;42.71
49072;BME280;52656;52.610;10.236;2023-03-15T10:26:49;101056.19;;;10.66;41.63
49072;BME280;52656;52.610;10.236;2023-03-15T10:29:20;101062.81;;;10.54;43.17
49072;BME280;52656;52.610;10.236;2023-03-15T10:31:46;101063.88;;;10.74;43.40
49072;BME280;52656;52.610;10.236;2023-03-15T10:34:12;101063.34;;;10.64;42.53
49072;BME280;52656;52.610;10.236;2023-03-15T10:36:43;101063.13;;;10.70;43.22
49072;BME280;52656;52.610;10.236;2023-03-15T10:39:10;101061.28;;;10.72;43.56
49072;BME280;52656;52.610;10.236;2023-03-15T10:41:39;101058.03;;;10.64;43.46
49072;BME280;52656;52.610;10.236;2023-03-15T10:44:10;101056.34;;;10.61;43.24
49072;BME280;52656;52.610;10.236;2023-03-15T10:46:35;101061.13;;;10.77;43.22
49072;BME280;52656;52.610;10.236;2023-03-15T10:49:14;101058.91;;;10.64;41.80
49072;BME280;52656;52.610;10.236;2023-03-15T10:54:10;101062.97;;;10.50;42.59
49072;BME280;52656;52.610;10.236;2023-03-15T10:56:43;101065.06;;;10.65;42.34
49072;BME280;52656;52.610;10.236;2023-03-15T10:59:24;101071.06;;;10.70;41.02
49072;BME280;52656;52.610;10.236;2023-03-15T11:01:52;101073.50;;;11.01;40.79
49072;BME280;52656;52.610;10.236;2023-03-15T11:04:21;101065.41;;;11.29;39.43
49072;BME280;52656;52.610;10.236;2023-03-15T11:07:00;101064.47;;;11.30;38.56
49072;BME280;52656;52.610;10.236;2023-03-15T11:12:07;101071.91;;;11.44;38.74
49072;BME280;52656;52.610;10.236;2023-03-15T11:14:42;101071.91;;;11.89;39.07
49072;BME280;52656;52.610;10.236;2023-03-15T11:17:18;101063.84;;;12.57;37.14
49072;BME280;52656;52.610;10.236;2023-03-15T11:20:01;101071.19;;;11.62;35.55
49072;BME280;52656;52.610;10.236;2023-03-15T11:22:40;101079.75;;;11.47;37.62
49072;BME280;52656;52.610;10.236;2023-03-15T11:25:14;101083.41;;;10.96;37.21
49072;BME280;52656;52.610;10.236;2023-03-15T11:27:46;101069.31;;;10.94;37.97
49072;BME280;52656;52.610;10.236;2023-03-15T11:30:18;101078.91;;;10.73;38.07
49072;BME280;52656;52.610;10.236;2023-03-15T11:32:57;101067.22;;;10.54;38.69
49072;BME280;52656;52.610;10.236;2023-03-15T11:35:42;101073.75;;;10.43;37.74
49072;BME280;52656;52.610;10.236;2023-03-15T11:38:32;101083.44;;;10.18;36.67
49072;BME280;52656;52.610;10.236;2023-03-15T11:45:03;101078.56;;;10.31;38.24
49072;BME280;52656;52.610;10.236;2023-03-15T11:50:00;101092.13;;;9.93;36.51
49072;BME280;52656;52.610;10.236;2023-03-15T11:52:30;101081.97;;;9.80;37.84
49072;BME280;52656;52.610;10.236;2023-03-15T11:55:03;101086.09;;;9.90;38.77
49072;BME280;52656;52.610;10.236;2023-03-15T12:01:02;101079.31;;;10.36;36.18
49072;BME280;52656;52.610;10.236;2023-03-15T12:03:35;101087.06;;;10.67;36.42
49072;BME280;52656;52.610;10.236;2023-03-15T12:16:25;101094.59;;;10.79;34.75
49072;BME280;52656;52.610;10.236;2023-03-15T12:18:52;101097.94;;;10.84;35.87
49072;BME280;52656;52.610;10.236;2023-03-15T12:21:21;101101.03;;;10.97;36.22
49072;BME280;52656;52.610;10.236;2023-03-15T12:23:55;101122.44;;;11.16;36.92
49072;BME280;52656;52.610;10.236;2023-03-15T12:26:25;101135.41;;;10.74;37.99
49072;BME280;52656;52.610;10.236;2023-03-15T12:29:19;101148.09;;;10.37;38.94
49072;BME280;52656;52.610;10.236;2023-03-15T12:34:49;101159.16;;;9.94;40.40
49072;BME280;52656;52.610;10.236;2023-03-15T12:37:20;101164.09;;;10.06;41.41
49072;BME280;52656;52.610;10.236;2023-03-15T12:42:58;101198.56;;;10.33;40.56
49072;BME280;52656;52.610;10.236;2023-03-15T12:53:00;101246.72;;;8.09;46.17
49072;BME280;52656;52.610;10.236;2023-03-15T12:55:27;101251.47;;;7.92;47.20
49072;BME280;52656;52.610;10.236;2023-03-15T12:57:56;101269.06;;;7.91;47.78
49072;BME280;52656;52.610;10.236;2023-03-15T13:00:29;101254.06;;;7.49;49.46
49072;BME280;52656;52.610;10.236;2023-03-15T13:03:25;101270.88;;;6.92;51.81
49072;BME280;52656;52.610;10.236;2023-03-15T13:20:37;101235.78;;;7.41;54.23
49072;BME280;52656;52.610;10.236;2023-03-15T13:23:04;101234.28;;;7.26;54.18
49072;BME280;52656;52.610;10.236;2023-03-15T13:25:56;101241.72;;;7.03;55.34
49072;BME280;52656;52.610;10.236;2023-03-15T13:28:28;101244.31;;;7.06;56.43
49072;BME280;52656;52.610;10.236;2023-03-15T13:31:01;101241.56;;;7.12;55.70
49072;BME280;52656;52.610;10.236;2023-03-15T13:33:37;101240.94;;;6.98;54.40
49072;BME280;52656;52.610;10.236;2023-03-15T13:36:09;101235.50;;;7.08;55.61
49072;BME280;52656;52.610;10.236;2023-03-15T13:41:04;101225.25;;;6.92;53.97
49072;BME280;52656;52.610;10.236;2023-03-15T13:43:35;101234.28;;;6.77;52.95
49072;BME280;52656;52.610;10.236;2023-03-15T13:46:01;101227.47;;;6.62;54.37
49072;BME280;52656;52.610;10.236;2023-03-15T13:48:32;101236.06;;;6.75;53.39
49072;BME280;52656;52.610;10.236;2023-03-15T13:53:40;101236.06;;;7.71;52.45
49072;BME280;52656;52.610;10.236;2023-03-15T13:56:07;101225.19;;;8.29;50.63
49072;BME280;52656;52.610;10.236;2023-03-15T13:58:36;101230.59;;;8.62;50.29
49072;BME280;52656;52.610;10.236;2023-03-15T14:01:05;101229.66;;;8.64;49.06
49072;BME280;52656;52.610;10.236;2023-03-15T14:03:32;101240.53;;;8.51;47.08
49072;BME280;52656;52.610;10.236;2023-03-15T14:05:59;101228.41;;;8.42;45.92